sensor_id;sensor_type;location;lat;lon;timestamp;pressure;altitude;pressure_sealevel;temperature;humidity
77323;BME280;66384;51.052;9.850;2023-03-14T00:01:28;96358.91;;;9.90;73.25
77323;BME280;66384;51.052;9.850;2023-03-14T00:03:57;96358.77;;;9.87;73.36
77323;BME280;66384;51.052;9.850;2023-03-14T00:06:27;96368.76;;;9.84;73.42
77323;BME280;66384;51.052;9.850;2023-03-14T00:08:56;96391.11;;;9.81;73.23
77323;BME280;66384;51.052;9.850;2023-03-14T00:11:25;96406.05;;;9.78;73.27
77323;BME280;66384;51.052;9.850;2023-03-14T00:13:55;96413.44;;;9.78;73.40
77323;BME280;66384;51.052;9.850;2023-03-14T00:16:24;96428.02;;;9.78;73.42
77323;BME280;66384;51.052;9.850;2023-03-14T00:18:53;96442.96;;;9.78;73.18
77323;BME280;66384;51.052;9.850;2023-03-14T00:21:22;96455.69;;;9.77;73.15
77323;BME280;66384;51.052;9.850;2023-03-14T00:23:52;96467.70;;;9.75;72.99
77323;BME280;66384;51.052;9.850;2023-03-14T00:26:22;96475.77;;;9.73;73.28
77323;BME280;66384;51.052;9.850;2023-03-14T00:28:54;96483.35;;;9.71;73.05
77323;BME280;66384;51.052;9.850;2023-03-14T00:31:23;96505.33;;;9.69;73.04
77323;BME280;66384;51.052;9.850;2023-03-14T00:33:54;96523.20;;;9.67;73.09
77323;BME280;66384;51.052;9.850;2023-03-14T00:36:23;96529.55;;;9.66;73.24
77323;BME280;66384;51.052;9.850;2023-03-14T00:38:53;96507.42;;;9.65;73.26
77323;BME280;66384;51.052;9.850;2023-03-14T00:41:23;96506.89;;;9.64;73.18
77323;BME280;66384;51.052;9.850;2023-03-14T00:43:52;96511.88;;;9.63;72.91
77323;BME280;66384;51.052;9.850;2023-03-14T00:46:21;96520.64;;;9.63;72.92
77323;BME280;66384;51.052;9.850;2023-03-14T00:48:51;96516.86;;;9.62;72.92
77323;BME280;66384;51.052;9.850;2023-03-14T00:51:20;96506.05;;;9.64;73.01
77323;BME280;66384;51.052;9.850;2023-03-14T00:53:49;96501.06;;;9.63;73.11
77323;BME280;66384;51.052;9.850;2023-03-14T00:56:18;96490.08;;;9.63;72.78
77323;BME280;66384;51.052;9.850;2023-03-14T00:58:48;96477.73;;;9.64;72.76
77323;BME280;66384;51.052;9.850;2023-03-14T01:01:18;96476.02;;;9.65;72.81
77323;BME280;66384;51.052;9.850;2023-03-14T01:03:49;96472.39;;;9.65;72.74
77323;BME280;66384;51.052;9.850;2023-03-14T01:06:21;96477.02;;;9.66;72.67
77323;BME280;66384;51.052;9.850;2023-03-14T01:08:51;96477.70;;;9.67;72.80
77323;BME280;66384;51.052;9.850;2023-03-14T01:11:23;96472.73;;;9.68;72.77
77323;BME280;66384;51.052;9.850;2023-03-14T01:13:53;96476.66;;;9.69;72.48
77323;BME280;66384;51.052;9.850;2023-03-14T01:16:24;96472.20;;;9.70;72.63
77323;BME280;66384;51.052;9.850;2023-03-14T01:18:54;96469.42;;;9.73;72.61
77323;BME280;66384;51.052;9.850;2023-03-14T01:21:26;96460.84;;;9.73;72.40
77323;BME280;66384;51.052;9.850;2023-03-14T01:23:57;96451.23;;;9.74;72.43
77323;BME280;66384;51.052;9.850;2023-03-14T01:26:29;96453.11;;;9.75;72.21
77323;BME280;66384;51.052;9.850;2023-03-14T01:28:59;96448.64;;;9.76;72.11
77323;BME280;66384;51.052;9.850;2023-03-14T01:31:29;96443.83;;;9.77;71.96
77323;BME280;66384;51.052;9.850;2023-03-14T01:33:58;96448.80;;;9.77;72.12
77323;BME280;66384;51.052;9.850;2023-03-14T01:36:28;96441.77;;;9.78;71.95
77323;BME280;66384;51.052;9.850;2023-03-14T01:38:57;96439.52;;;9.80;71.85
77323;BME280;66384;51.052;9.850;2023-03-14T01:41:27;96441.39;;;9.80;71.85
77323;BME280;66384;51.052;9.850;2023-03-14T01:43:56;96432.98;;;9.81;71.85
77323;BME280;66384;51.052;9.850;2023-03-14T01:46:33;96425.93;;;9.84;71.54
77323;BME280;66384;51.052;9.850;2023-03-14T01:49:14;96414.61;;;9.83;71.49
77323;BME280;66384;51.052;9.850;2023-03-14T01:51:48;96414.94;;;9.83;71.22
77323;BME280;66384;51.052;9.850;2023-03-14T01:54:21;96417.69;;;9.83;71.13
77323;BME280;66384;51.052;9.850;2023-03-14T01:56:56;96414.95;;;9.82;71.32
77323;BME280;66384;51.052;9.850;2023-03-14T01:59:27;96403.80;;;9.82;71.22
77323;BME280;66384;51.052;9.850;2023-03-14T02:01:58;96392.30;;;9.82;71.16
77323;BME280;66384;51.052;9.850;2023-03-14T02:04:30;96390.23;;;9.83;71.21
77323;BME280;66384;51.052;9.850;2023-03-14T02:07:05;96380.98;;;9.82;71.25
77323;BME280;66384;51.052;9.850;2023-03-14T02:09:37;96380.11;;;9.83;71.15
77323;BME280;66384;51.052;9.850;2023-03-14T02:12:11;96388.01;;;9.82;71.21
77323;BME280;66384;51.052;9.850;2023-03-14T02:14:40;96388.69;;;9.82;71.11
77323;BME280;66384;51.052;9.850;2023-03-14T02:17:10;96395.05;;;9.80;71.13
77323;BME280;66384;51.052;9.850;2023-03-14T02:19:50;96386.64;;;9.80;71.14
77323;BME280;66384;51.052;9.850;2023-03-14T02:22:22;96383.39;;;9.80;71.12
77323;BME280;66384;51.052;9.850;2023-03-14T02:24:59;96380.30;;;9.80;70.96
77323;BME280;66384;51.052;9.850;2023-03-14T02:27:32;96375.98;;;9.81;71.44
77323;BME280;66384;51.052;9.850;2023-03-14T02:30:04;96370.16;;;9.81;71.16
77323;BME280;66384;51.052;9.850;2023-03-14T02:32:36;96363.11;;;9.82;71.15
77323;BME280;66384;51.052;9.850;2023-03-14T02:35:10;96368.27;;;9.82;71.28
77323;BME280;66384;51.052;9.850;2023-03-14T02:37:43;96362.77;;;9.82;71.10
77323;BME280;66384;51.052;9.850;2023-03-14T02:40:15;96357.10;;;9.82;71.19
77323;BME280;66384;51.052;9.850;2023-03-14T02:42:44;96351.27;;;9.82;71.33
77323;BME280;66384;51.052;9.850;2023-03-14T02:45:46;96340.63;;;9.81;71.30
77323;BME280;66384;51.052;9.850;2023-03-14T02:48:20;96339.95;;;9.81;71.18
77323;BME280;66384;51.052;9.850;2023-03-14T02:50:52;96336.16;;;9.81;71.20
77323;BME280;66384;51.052;9.850;2023-03-14T02:53:25;96338.22;;;9.81;71.19
77323;BME280;66384;51.052;9.850;2023-03-14T02:55:55;96338.57;;;9.81;71.01
77323;BME280;66384;51.052;9.850;2023-03-14T02:58:25;96329.32;;;9.80;71.09
77323;BME280;66384;51.052;9.850;2023-03-14T03:00:54;96324.15;;;9.81;70.94
77323;BME280;66384;51.052;9.850;2023-03-14T03:03:24;96324.16;;;9.80;71.12
77323;BME280;66384;51.052;9.850;2023-03-14T03:05:54;96323.83;;;9.79;71.01
77323;BME280;66384;51.052;9.850;2023-03-14T03:08:26;96320.39;;;9.79;70.85
77323;BME280;66384;51.052;9.850;2023-03-14T03:10:56;96324.17;;;9.80;71.13
77323;BME280;66384;51.052;9.850;2023-03-14T03:13:25;96314.02;;;9.81;71.01
77323;BME280;66384;51.052;9.850;2023-03-14T03:15:55;96323.12;;;9.81;70.84
77323;BME280;66384;51.052;9.850;2023-03-14T03:18:24;96308.17;;;9.81;70.56
77323;BME280;66384;51.052;9.850;2023-03-14T03:20:54;96305.96;;;9.80;70.66
77323;BME280;66384;51.052;9.850;2023-03-14T03:23:23;96302.52;;;9.80;70.70
77323;BME280;66384;51.052;9.850;2023-03-14T03:25:52;96296.36;;;9.79;70.83
77323;BME280;66384;51.052;9.850;2023-03-14T03:28:22;96304.61;;;9.79;70.62
77323;BME280;66384;51.052;9.850;2023-03-14T03:30:51;96316.27;;;9.79;70.65
77323;BME280;66384;51.052;9.850;2023-03-14T03:33:20;96310.61;;;9.79;70.50
77323;BME280;66384;51.052;9.850;2023-03-14T03:35:51;96311.97;;;9.80;70.54
77323;BME280;66384;51.052;9.850;2023-03-14T03:38:20;96308.17;;;9.81;70.29
77323;BME280;66384;51.052;9.850;2023-03-14T03:40:49;96305.78;;;9.80;70.14
77323;BME280;66384;51.052;9.850;2023-03-14T03:43:19;96298.23;;;9.80;70.26
77323;BME280;66384;51.052;9.850;2023-03-14T03:45:48;96297.70;;;9.81;70.32
77323;BME280;66384;51.052;9.850;2023-03-14T03:48:17;96300.13;;;9.80;70.10
77323;BME280;66384;51.052;9.850;2023-03-14T03:50:48;96295.48;;;9.80;70.05
77323;BME280;66384;51.052;9.850;2023-03-14T03:53:17;96291.39;;;9.79;69.79
77323;BME280;66384;51.052;9.850;2023-03-14T03:55:46;96295.52;;;9.77;69.81
77323;BME280;66384;51.052;9.850;2023-03-14T03:58:16;96293.98;;;9.76;69.79
77323;BME280;66384;51.052;9.850;2023-03-14T04:00:45;96295.52;;;9.75;69.86
77323;BME280;66384;51.052;9.850;2023-03-14T04:03:14;96296.74;;;9.75;69.27
77323;BME280;66384;51.052;9.850;2023-03-14T04:05:43;96298.12;;;9.75;69.39
77323;BME280;66384;51.052;9.850;2023-03-14T04:08:12;96292.13;;;9.74;69.38
77323;BME280;66384;51.052;9.850;2023-03-14T04:10:42;96285.77;;;9.73;69.28
77323;BME280;66384;51.052;9.850;2023-03-14T04:13:11;96281.83;;;9.72;69.71
77323;BME280;66384;51.052;9.850;2023-03-14T04:15:40;96295.73;;;9.72;69.49
77323;BME280;66384;51.052;9.850;2023-03-14T04:18:09;96291.11;;;9.71;69.67
77323;BME280;66384;51.052;9.850;2023-03-14T04:20:39;96290.60;;;9.70;69.65
77323;BME280;66384;51.052;9.850;2023-03-14T04:23:08;96289.75;;;9.69;69.28
77323;BME280;66384;51.052;9.850;2023-03-14T04:25:37;96298.34;;;9.69;69.46
77323;BME280;66384;51.052;9.850;2023-03-14T04:28:06;96293.36;;;9.68;69.43
77323;BME280;66384;51.052;9.850;2023-03-14T04:30:35;96292.16;;;9.68;69.25
77323;BME280;66384;51.052;9.850;2023-03-14T04:33:05;96293.05;;;9.66;68.97
77323;BME280;66384;51.052;9.850;2023-03-14T04:35:35;96281.89;;;9.66;69.02
77323;BME280;66384;51.052;9.850;2023-03-14T04:38:05;96278.12;;;9.65;69.21
77323;BME280;66384;51.052;9.850;2023-03-14T04:40:36;96274.52;;;9.66;69.19
77323;BME280;66384;51.052;9.850;2023-03-14T04:43:03;96276.06;;;9.65;68.82
77323;BME280;66384;51.052;9.850;2023-03-14T04:45:32;96270.23;;;9.64;69.25
77323;BME280;66384;51.052;9.850;2023-03-14T04:48:02;96271.44;;;9.64;69.14
77323;BME280;66384;51.052;9.850;2023-03-14T04:50:31;96270.77;;;9.63;68.86
77323;BME280;66384;51.052;9.850;2023-03-14T04:53:00;96273.68;;;9.63;68.98
77323;BME280;66384;51.052;9.850;2023-03-14T04:55:30;96271.64;;;9.62;68.80
77323;BME280;66384;51.052;9.850;2023-03-14T04:58:00;96264.09;;;9.61;68.92
77323;BME280;66384;51.052;9.850;2023-03-14T05:00:29;96261.16;;;9.61;68.67
77323;BME280;66384;51.052;9.850;2023-03-14T05:02:59;96259.29;;;9.61;68.67
77323;BME280;66384;51.052;9.850;2023-03-14T05:05:28;96257.08;;;9.59;68.87
77323;BME280;66384;51.052;9.850;2023-03-14T05:07:57;96259.66;;;9.58;68.51
77323;BME280;66384;51.052;9.850;2023-03-14T05:10:27;96259.99;;;9.58;68.28
77323;BME280;66384;51.052;9.850;2023-03-14T05:12:56;96266.19;;;9.57;68.44
77323;BME280;66384;51.052;9.850;2023-03-14T05:15:25;96261.39;;;9.55;68.07
77323;BME280;66384;51.052;9.850;2023-03-14T05:17:55;96259.02;;;9.53;68.03
77323;BME280;66384;51.052;9.850;2023-03-14T05:20:24;96268.13;;;9.51;68.35
77323;BME280;66384;51.052;9.850;2023-03-14T05:22:53;96282.72;;;9.49;68.25
77323;BME280;66384;51.052;9.850;2023-03-14T05:25:23;96276.55;;;9.49;68.20
77323;BME280;66384;51.052;9.850;2023-03-14T05:27:54;96279.15;;;9.47;68.53
77323;BME280;66384;51.052;9.850;2023-03-14T05:30:24;96277.42;;;9.47;68.30
77323;BME280;66384;51.052;9.850;2023-03-14T05:32:53;96274.85;;;9.46;68.24
77323;BME280;66384;51.052;9.850;2023-03-14T05:35:22;96270.39;;;9.46;68.41
77323;BME280;66384;51.052;9.850;2023-03-14T05:37:52;96271.94;;;9.47;68.70
77323;BME280;66384;51.052;9.850;2023-03-14T05:40:21;96267.13;;;9.47;68.62
77323;BME280;66384;51.052;9.850;2023-03-14T05:42:50;96270.39;;;9.47;68.79
77323;BME280;66384;51.052;9.850;2023-03-14T05:45:20;96269.36;;;9.47;68.73
77323;BME280;66384;51.052;9.850;2023-03-14T05:47:49;96274.70;;;9.45;68.66
77323;BME280;66384;51.052;9.850;2023-03-14T05:50:18;96281.39;;;9.45;68.87
77323;BME280;66384;51.052;9.850;2023-03-14T05:52:48;96280.19;;;9.45;68.91
77323;BME280;66384;51.052;9.850;2023-03-14T05:55:17;96277.27;;;9.45;69.15
77323;BME280;66384;51.052;9.850;2023-03-14T05:57:46;96278.13;;;9.45;69.21
77323;BME280;66384;51.052;9.850;2023-03-14T06:00:17;96284.30;;;9.45;69.10
77323;BME280;66384;51.052;9.850;2023-03-14T06:02:47;96278.64;;;9.45;69.33
77323;BME280;66384;51.052;9.850;2023-03-14T06:05:16;96270.58;;;9.45;69.25
77323;BME280;66384;51.052;9.850;2023-03-14T06:07:45;96271.25;;;9.45;69.70
77323;BME280;66384;51.052;9.850;2023-03-14T06:10:15;96262.85;;;9.46;69.71
77323;BME280;66384;51.052;9.850;2023-03-14T06:12:44;96261.64;;;9.46;69.65
77323;BME280;66384;51.052;9.850;2023-03-14T06:15:13;96258.04;;;9.47;69.76
77323;BME280;66384;51.052;9.850;2023-03-14T06:17:43;96248.06;;;9.49;69.67
77323;BME280;66384;51.052;9.850;2023-03-14T06:20:13;96246.66;;;9.52;69.93
77323;BME280;66384;51.052;9.850;2023-03-14T06:22:42;96255.03;;;9.57;69.81
77323;BME280;66384;51.052;9.850;2023-03-14T06:25:12;96240.23;;;9.61;69.33
77323;BME280;66384;51.052;9.850;2023-03-14T06:27:41;96240.70;;;9.65;69.71
77323;BME280;66384;51.052;9.850;2023-03-14T06:30:13;96243.58;;;9.70;69.43
77323;BME280;66384;51.052;9.850;2023-03-14T06:32:42;96235.98;;;9.73;69.22
77323;BME280;66384;51.052;9.850;2023-03-14T06:35:11;96242.14;;;9.75;68.94
77323;BME280;66384;51.052;9.850;2023-03-14T06:37:40;96238.36;;;9.77;68.54
77323;BME280;66384;51.052;9.850;2023-03-14T06:40:12;96234.07;;;9.77;68.32
77323;BME280;66384;51.052;9.850;2023-03-14T06:42:45;96228.58;;;9.77;68.78
77323;BME280;66384;51.052;9.850;2023-03-14T06:45:14;96230.77;;;9.80;68.97
77323;BME280;66384;51.052;9.850;2023-03-14T06:47:44;96222.51;;;9.82;68.97
77323;BME280;66384;51.052;9.850;2023-03-14T06:50:13;96221.64;;;9.84;68.92
77323;BME280;66384;51.052;9.850;2023-03-14T06:52:43;96219.40;;;9.84;69.07
77323;BME280;66384;51.052;9.850;2023-03-14T06:55:16;96221.84;;;9.82;69.15
77323;BME280;66384;51.052;9.850;2023-03-14T06:57:45;96226.66;;;9.78;69.56
77323;BME280;66384;51.052;9.850;2023-03-14T07:00:16;96223.45;;;9.75;69.82
77323;BME280;66384;51.052;9.850;2023-03-14T07:02:45;96227.79;;;9.71;70.08
77323;BME280;66384;51.052;9.850;2023-03-14T07:05:15;96225.95;;;9.65;70.24
77323;BME280;66384;51.052;9.850;2023-03-14T07:07:44;96226.52;;;9.61;70.58
77323;BME280;66384;51.052;9.850;2023-03-14T07:10:13;96230.48;;;9.59;70.42
77323;BME280;66384;51.052;9.850;2023-03-14T07:12:43;96228.95;;;9.58;70.76
77323;BME280;66384;51.052;9.850;2023-03-14T07:15:12;96231.02;;;9.56;71.11
77323;BME280;66384;51.052;9.850;2023-03-14T07:17:42;96241.47;;;9.56;71.00
77323;BME280;66384;51.052;9.850;2023-03-14T07:20:12;96240.10;;;9.56;70.86
77323;BME280;66384;51.052;9.850;2023-03-14T07:22:41;96236.33;;;9.56;70.80
77323;BME280;66384;51.052;9.850;2023-03-14T07:25:11;96242.48;;;9.58;70.84
77323;BME280;66384;51.052;9.850;2023-03-14T07:27:40;96243.02;;;9.58;71.18
77323;BME280;66384;51.052;9.850;2023-03-14T07:30:11;96238.89;;;9.59;71.32
77323;BME280;66384;51.052;9.850;2023-03-14T07:32:41;96238.90;;;9.57;71.31
77323;BME280;66384;51.052;9.850;2023-03-14T07:35:10;96237.89;;;9.56;71.31
77323;BME280;66384;51.052;9.850;2023-03-14T07:37:39;96238.44;;;9.52;71.58
77323;BME280;66384;51.052;9.850;2023-03-14T07:40:10;96243.42;;;9.49;71.79
77323;BME280;66384;51.052;9.850;2023-03-14T07:42:43;96238.83;;;9.46;71.80
77323;BME280;66384;51.052;9.850;2023-03-14T07:45:12;96241.39;;;9.46;72.23
77323;BME280;66384;51.052;9.850;2023-03-14T07:47:41;96240.19;;;9.46;71.85
77323;BME280;66384;51.052;9.850;2023-03-14T07:50:12;96239.87;;;9.44;71.83
77323;BME280;66384;51.052;9.850;2023-03-14T07:52:41;96238.00;;;9.42;71.95
77323;BME280;66384;51.052;9.850;2023-03-14T07:55:10;96239.39;;;9.41;72.00
77323;BME280;66384;51.052;9.850;2023-03-14T07:57:39;96234.25;;;9.40;72.06
77323;BME280;66384;51.052;9.850;2023-03-14T08:00:11;96228.23;;;9.41;71.97
77323;BME280;66384;51.052;9.850;2023-03-14T08:02:42;96226.17;;;9.42;71.90
77323;BME280;66384;51.052;9.850;2023-03-14T08:05:11;96221.88;;;9.42;72.07
77323;BME280;66384;51.052;9.850;2023-03-14T08:07:40;96216.90;;;9.42;71.81
77323;BME280;66384;51.052;9.850;2023-03-14T08:10:11;96215.18;;;9.44;72.25
77323;BME280;66384;51.052;9.850;2023-03-14T08:12:43;96220.63;;;9.46;72.42
77323;BME280;66384;51.052;9.850;2023-03-14T08:15:13;96215.15;;;9.47;71.79
77323;BME280;66384;51.052;9.850;2023-03-14T08:17:42;96208.79;;;9.48;72.07
77323;BME280;66384;51.052;9.850;2023-03-14T08:20:12;96207.91;;;9.50;72.05
77323;BME280;66384;51.052;9.850;2023-03-14T08:22:42;96202.05;;;9.51;72.01
77323;BME280;66384;51.052;9.850;2023-03-14T08:25:11;96195.69;;;9.55;71.86
77323;BME280;66384;51.052;9.850;2023-03-14T08:27:41;96189.12;;;9.60;71.50
77323;BME280;66384;51.052;9.850;2023-03-14T08:30:16;96186.48;;;9.65;71.27
77323;BME280;66384;51.052;9.850;2023-03-14T08:32:46;96183.15;;;9.71;71.25
77323;BME280;66384;51.052;9.850;2023-03-14T08:35:15;96179.17;;;9.74;70.57
77323;BME280;66384;51.052;9.850;2023-03-14T08:37:45;96184.45;;;9.78;70.43
77323;BME280;66384;51.052;9.850;2023-03-14T08:40:15;96186.31;;;9.81;70.08
77323;BME280;66384;51.052;9.850;2023-03-14T08:42:46;96183.53;;;9.84;69.98
77323;BME280;66384;51.052;9.850;2023-03-14T08:45:16;96190.19;;;9.86;69.92
77323;BME280;66384;51.052;9.850;2023-03-14T08:47:46;96195.83;;;9.89;69.83
77323;BME280;66384;51.052;9.850;2023-03-14T08:50:15;96202.84;;;9.92;69.12
77323;BME280;66384;51.052;9.850;2023-03-14T08:52:44;96199.88;;;9.95;69.18
77323;BME280;66384;51.052;9.850;2023-03-14T08:55:14;96206.88;;;9.99;69.18
77323;BME280;66384;51.052;9.850;2023-03-14T08:57:43;96207.86;;;10.02;69.51
77323;BME280;66384;51.052;9.850;2023-03-14T09:00:14;96214.34;;;10.07;69.26
77323;BME280;66384;51.052;9.850;2023-03-14T09:02:44;96215.67;;;10.09;69.42
77323;BME280;66384;51.052;9.850;2023-03-14T09:05:13;96213.25;;;10.11;69.13
77323;BME280;66384;51.052;9.850;2023-03-14T09:07:43;96216.13;;;10.15;69.46
77323;BME280;66384;51.052;9.850;2023-03-14T09:10:13;96226.54;;;10.21;69.25
77323;BME280;66384;51.052;9.850;2023-03-14T09:12:42;96230.29;;;10.22;68.86
77323;BME280;66384;51.052;9.850;2023-03-14T09:15:12;96230.13;;;10.22;69.31
77323;BME280;66384;51.052;9.850;2023-03-14T09:17:43;96229.42;;;10.24;69.44
77323;BME280;66384;51.052;9.850;2023-03-14T09:20:13;96236.09;;;10.27;69.57
77323;BME280;66384;51.052;9.850;2023-03-14T09:22:42;96232.79;;;10.31;69.55
77323;BME280;66384;51.052;9.850;2023-03-14T09:25:12;96237.55;;;10.36;69.21
77323;BME280;66384;51.052;9.850;2023-03-14T09:27:41;96237.34;;;10.38;68.99
77323;BME280;66384;51.052;9.850;2023-03-14T09:30:12;96241.27;;;10.40;69.21
77323;BME280;66384;51.052;9.850;2023-03-14T09:32:42;96243.48;;;10.43;69.13
77323;BME280;66384;51.052;9.850;2023-03-14T09:35:11;96240.31;;;10.48;69.32
77323;BME280;66384;51.052;9.850;2023-03-14T09:37:40;96249.73;;;10.51;69.36
77323;BME280;66384;51.052;9.850;2023-03-14T09:40:14;96248.87;;;10.51;69.45
77323;BME280;66384;51.052;9.850;2023-03-14T09:42:44;96248.50;;;10.52;69.49
77323;BME280;66384;51.052;9.850;2023-03-14T09:45:27;96244.72;;;10.53;69.73
77323;BME280;66384;51.052;9.850;2023-03-14T09:47:58;96239.38;;;10.54;69.65
77323;BME280;66384;51.052;9.850;2023-03-14T09:50:33;96245.71;;;10.56;69.88
77323;BME280;66384;51.052;9.850;2023-03-14T09:53:09;96238.96;;;10.58;69.85
77323;BME280;66384;51.052;9.850;2023-03-14T09:55:43;96241.85;;;10.62;69.77
77323;BME280;66384;51.052;9.850;2023-03-14T09:58:16;96241.98;;;10.64;69.51
77323;BME280;66384;51.052;9.850;2023-03-14T10:00:45;96244.35;;;10.67;69.74
77323;BME280;66384;51.052;9.850;2023-03-14T10:03:33;96239.80;;;10.73;69.83
77323;BME280;66384;51.052;9.850;2023-03-14T10:06:02;96241.81;;;10.77;69.57
77323;BME280;66384;51.052;9.850;2023-03-14T10:08:40;96242.32;;;10.76;69.76
77323;BME280;66384;51.052;9.850;2023-03-14T10:11:15;96238.73;;;10.76;69.68
77323;BME280;66384;51.052;9.850;2023-03-14T10:14:04;96237.15;;;10.78;69.83
77323;BME280;66384;51.052;9.850;2023-03-14T10:16:36;96239.67;;;10.83;69.79
77323;BME280;66384;51.052;9.850;2023-03-14T10:19:09;96239.08;;;10.88;69.69
77323;BME280;66384;51.052;9.850;2023-03-14T10:21:41;96240.23;;;10.90;69.36
77323;BME280;66384;51.052;9.850;2023-03-14T10:24:20;96243.48;;;10.92;69.43
77323;BME280;66384;51.052;9.850;2023-03-14T10:26:50;96237.81;;;10.91;69.34
77323;BME280;66384;51.052;9.850;2023-03-14T10:29:21;96249.52;;;10.92;69.25
77323;BME280;66384;51.052;9.850;2023-03-14T10:31:54;96249.15;;;10.92;68.84
77323;BME280;66384;51.052;9.850;2023-03-14T10:34:26;96241.38;;;10.95;68.92
77323;BME280;66384;51.052;9.850;2023-03-14T10:36:59;96240.95;;;11.01;68.91
77323;BME280;66384;51.052;9.850;2023-03-14T10:39:41;96249.84;;;11.04;68.50
77323;BME280;66384;51.052;9.850;2023-03-14T10:42:19;96242.58;;;11.06;68.48
77323;BME280;66384;51.052;9.850;2023-03-14T10:44:53;96241.34;;;11.08;68.52
77323;BME280;66384;51.052;9.850;2023-03-14T10:47:26;96235.24;;;11.14;68.26
77323;BME280;66384;51.052;9.850;2023-03-14T10:49:56;96236.54;;;11.19;68.67
77323;BME280;66384;51.052;9.850;2023-03-14T10:52:27;96238.52;;;11.24;68.56
77323;BME280;66384;51.052;9.850;2023-03-14T10:54:59;96241.34;;;11.30;68.72
77323;BME280;66384;51.052;9.850;2023-03-14T10:57:28;96243.27;;;11.38;68.49
77323;BME280;66384;51.052;9.850;2023-03-14T10:59:58;96238.36;;;11.45;68.07
77323;BME280;66384;51.052;9.850;2023-03-14T11:02:49;96235.04;;;11.47;68.12
77323;BME280;66384;51.052;9.850;2023-03-14T11:05:29;96239.30;;;11.49;67.85
77323;BME280;66384;51.052;9.850;2023-03-14T11:08:04;96234.84;;;11.49;67.87
77323;BME280;66384;51.052;9.850;2023-03-14T11:10:37;96229.36;;;11.56;67.96
77323;BME280;66384;51.052;9.850;2023-03-14T11:13:17;96229.09;;;11.63;67.56
77323;BME280;66384;51.052;9.850;2023-03-14T11:16:00;96233.13;;;11.67;67.65
77323;BME280;66384;51.052;9.850;2023-03-14T11:18:48;96228.09;;;11.71;67.24
77323;BME280;66384;51.052;9.850;2023-03-14T11:21:24;96227.67;;;11.75;67.29
77323;BME280;66384;51.052;9.850;2023-03-14T11:24:04;96224.14;;;11.79;67.02
77323;BME280;66384;51.052;9.850;2023-03-14T11:26:40;96222.13;;;11.87;67.22
77323;BME280;66384;51.052;9.850;2023-03-14T11:29:21;96217.37;;;11.93;67.24
77323;BME280;66384;51.052;9.850;2023-03-14T11:31:57;96215.68;;;12.00;67.23
77323;BME280;66384;51.052;9.850;2023-03-14T11:34:32;96218.09;;;12.10;67.06
77323;BME280;66384;51.052;9.850;2023-03-14T11:37:11;96210.52;;;12.18;65.83
77323;BME280;66384;51.052;9.850;2023-03-14T11:39:47;96215.25;;;12.21;65.68
77323;BME280;66384;51.052;9.850;2023-03-14T11:42:21;96216.60;;;12.23;65.13
77323;BME280;66384;51.052;9.850;2023-03-14T11:44:51;96216.80;;;12.22;64.55
77323;BME280;66384;51.052;9.850;2023-03-14T11:47:24;96213.61;;;12.18;64.08
77323;BME280;66384;51.052;9.850;2023-03-14T11:50:00;96206.02;;;12.10;64.41
77323;BME280;66384;51.052;9.850;2023-03-14T11:52:34;96207.84;;;12.05;64.57
77323;BME280;66384;51.052;9.850;2023-03-14T11:55:10;96214.30;;;12.00;64.14
77323;BME280;66384;51.052;9.850;2023-03-14T11:57:40;96204.85;;;11.90;63.65
77323;BME280;66384;51.052;9.850;2023-03-14T12:00:17;96200.67;;;11.82;63.93
77323;BME280;66384;51.052;9.850;2023-03-14T12:02:55;96199.77;;;11.75;63.99
77323;BME280;66384;51.052;9.850;2023-03-14T12:05:37;96200.73;;;11.70;64.16
77323;BME280;66384;51.052;9.850;2023-03-14T12:08:32;96194.28;;;11.64;64.67
77323;BME280;66384;51.052;9.850;2023-03-14T12:11:04;96197.46;;;11.60;64.85
77323;BME280;66384;51.052;9.850;2023-03-14T12:13:38;96210.80;;;11.55;65.33
77323;BME280;66384;51.052;9.850;2023-03-14T12:16:24;96218.12;;;11.51;66.44
77323;BME280;66384;51.052;9.850;2023-03-14T12:18:55;96215.45;;;11.45;67.31
77323;BME280;66384;51.052;9.850;2023-03-14T12:21:43;96212.44;;;11.41;67.50
77323;BME280;66384;51.052;9.850;2023-03-14T12:24:19;96216.14;;;11.35;67.70
77323;BME280;66384;51.052;9.850;2023-03-14T12:26:54;96216.80;;;11.27;67.60
77323;BME280;66384;51.052;9.850;2023-03-14T12:29:25;96226.05;;;11.19;67.84
77323;BME280;66384;51.052;9.850;2023-03-14T12:32:09;96232.92;;;11.08;68.07
77323;BME280;66384;51.052;9.850;2023-03-14T12:34:42;96234.23;;;11.02;68.68
77323;BME280;66384;51.052;9.850;2023-03-14T12:40:24;96234.55;;;10.91;69.41
77323;BME280;66384;51.052;9.850;2023-03-14T12:43:00;96236.36;;;10.85;69.55
77323;BME280;66384;51.052;9.850;2023-03-14T12:45:32;96238.80;;;10.83;70.08
77323;BME280;66384;51.052;9.850;2023-03-14T12:48:14;96240.55;;;10.80;70.53
77323;BME280;66384;51.052;9.850;2023-03-14T12:50:46;96239.23;;;10.78;70.96
77323;BME280;66384;51.052;9.850;2023-03-14T12:56:07;96243.17;;;10.65;71.80
77323;BME280;66384;51.052;9.850;2023-03-14T12:58:42;96266.50;;;10.56;72.43
77323;BME280;66384;51.052;9.850;2023-03-14T13:01:18;96278.46;;;10.48;73.11
77323;BME280;66384;51.052;9.850;2023-03-14T13:03:52;96283.70;;;10.41;73.15
77323;BME280;66384;51.052;9.850;2023-03-14T13:06:47;96290.15;;;10.33;73.28
77323;BME280;66384;51.052;9.850;2023-03-14T13:09:47;96316.41;;;10.16;72.87
77323;BME280;66384;51.052;9.850;2023-03-14T13:12:23;96330.70;;;9.96;72.56
77323;BME280;66384;51.052;9.850;2023-03-14T13:14:52;96339.97;;;9.79;72.07
77323;BME280;66384;51.052;9.850;2023-03-14T13:17:26;96360.66;;;9.66;71.82
77323;BME280;66384;51.052;9.850;2023-03-14T13:19:58;96366.08;;;9.54;71.60
77323;BME280;66384;51.052;9.850;2023-03-14T13:22:32;96374.23;;;9.41;71.66
77323;BME280;66384;51.052;9.850;2023-03-14T13:25:03;96384.43;;;9.29;71.73
77323;BME280;66384;51.052;9.850;2023-03-14T13:27:35;96395.30;;;9.19;71.23
77323;BME280;66384;51.052;9.850;2023-03-14T13:30:19;96406.14;;;9.11;71.92
77323;BME280;66384;51.052;9.850;2023-03-14T13:32:51;96418.52;;;9.03;71.76
77323;BME280;66384;51.052;9.850;2023-03-14T13:35:23;96435.70;;;8.93;71.76
77323;BME280;66384;51.052;9.850;2023-03-14T13:37:59;96453.05;;;8.84;71.41